Hadley, PA (16130)

8:18 AM EDT on September 26, 2016 (GMT -0400)
Hempfield township | | Change Station

Elev 1168 ft 41.41 °N, 80.35 °W | Updated 9 seconds ago

Clear
Clear
56.7 °F
Feels Like 56.7 °F
N
1.1
Wind Variable Wind from SE
Gusts 2.5 mph

Today
High -- | Low -- °F
--% Chance of Precip.
Yesterday
High -- | Low -- °F
Precip. -- in
Pressure 29.98 in
Visibility 10.0 miles
Clouds Clear
Dew Point 45 °F
Humidity 65%
Rainfall 0.00 in
Snow Depth Not available.
7:13 AM 7:10 PM
Waning Crescent, 19% visible
METAR KGKJ 261153Z AUTO VRB03KT 10SM CLR 13/08 A2998 RMK AO2 SLP151 T01280078 10133 20117 58009 TSNO
Pressure 29.98 in
Visibility 10.0 miles
Clouds Clear
Dew Point 45 °F
Humidity 65%
Rainfall 0.00 in
Snow Depth Not available.
7:13 AM 7:10 PM
Waning Crescent, 19% visible
METAR KGKJ 261153Z AUTO VRB03KT 10SM CLR 13/08 A2998 RMK AO2 SLP151 T01280078 10133 20117 58009 TSNO

10-Day Weather Forecast

Almanac

Astronomy

Sep. 26, 2016 Rise Set
Actual Time
Civil Twilight
Nautical Twilight
Astronomical Twilight
Moon
Length of Visible Light
Length of Day
Tomorrow will be .
, % of the Moon is Illuminated

Today's Extremes

State Highs State Lows

Community

WunderPhotos

Upload Photos

1,941,863 photos uploaded!

WunderBlog® & News

Nearby

Air Quality

  Air Quality AQ Index Pollutant
Not available.

Snow Depth

Station Depth Elevation

Earthquake Activity

City Distance Mag. Time & Date
Minimum magnitude displayed is 2.5.

Coastal Water Temperatures

Place Temperature

Stations

Nearby Weather Stations

Station Location Temp. Windchill Dew Point Humidity Wind Precip. Elev Updated Type
                   

Watches & Warnings

There are currently no watches in effect.